Aérodrome :
LOGIN :

S'inscrire | Disclaimer

   EN    FR    IT 

 










Légende :    VFR   VFR Marginal   IFR   IFR Intensif   IFR Très Intensif
Visi : 
Plafond : 
>= 8 km
>= 3000ft
5 à 8 km
1000 à 3000 ft
1500m à 5 km
500 à 1000 ft
800 à 1500m
200 à 500 ft
< 800m
< 200 ft
Symboles :   Orages  Brouillard  Fortes neiges  Fortes précipitations  Vent > 20 kt
SIGMETs :   Divers  Orages  Givrage  Turbulence  Onde Orograph.  Cendres Volcan.







- Altitude de l'aérodrome : 1234 ft
- Code IATA : LUX


ELLX - Luxembourg Findel

DERNIER METAR :
  • 181920Z 17002KT 4000 BR NSC M01/M02 Q1023 R99/29//53 NOSIG

METARs EXPIRÉS :
  • 181850Z 12002KT 5000 BR NSC M00/M02 Q1024 R06/29//53 NOSIG
  • 181820Z VRB02KT 5000 BR NSC 00/M01 Q1024 R99/19//48 NOSIG
  • 181750Z 15003KT 5000 BR NSC 01/M01 Q1024 R99/19//48 NOSIG
  • 181720Z 16004KT 6000 NSC 01/M01 Q1024 R06/19//48 NOSIG
  • 181650Z 16003KT 8000 NSC 02/M02 Q1024 NOSIG

TAF TAF ELLX
Valide du 18 à 18h jusqu'au 20 à 00h UTC


181700Z 1818/1924 15005KT CAVOK
PROB30 1900/1910 4000 MIFG
ATIS : +352 4798 27300
Météo : +352 4798 27010 / 27050
Pas de NOTAMs connus pour ce terrain.



MET'MAP, la Météo Aéronautique d'un coup d'oeil ! - Copyright ORBIFLY Décembre 2007 - Disclaimer

ORBIFLY MET'MAP TEAM :

Programmation & Développement : Alexandra Zaïnal
Conception & Développement : Baudouin d'Aumeries
Co-Programmation & Développement : Marc-Olivier Méhu
Soutien technique & logistique : Manuel Goepfert

Contact : metmap@orbifly.com




SOURCES & CREDITS :

   NOAA